Terminal Aerodrome Forecast
Issued by NWS

Home | Current Version | Previous Version | Graphics & Text | Print | Product List | Glossary On
Versions: 1 2 3 4 5 6 7 8 9 10 11 12
000
FTUS43 KGRB 170520
TAFAUW
TAF
KAUW 170520Z 1706/1806 20005KT P6SM BKN250 WS020/24035KT
     FM171200 19007KT P6SM -SHSN OVC035 WS019/25040KT
     FM171500 22008G15KT 2SM -SHSN OVC027 WS019/24040KT
     FM171800 23008G15KT P6SM -SHSN OVC040
     FM172200 27007KT P6SM BKN035
     FM180100 26009KT P6SM SCT030=

USA.gov is the U.S. government's official web portal to all federal, state and local government web resources and services.